createdAt,value
2022-11-12T00:00:53.874Z,13.40
2022-11-12T00:03:21.130Z,11.57
2022-11-12T00:05:49.611Z,10.30
2022-11-12T00:08:16.860Z,12.00
2022-11-12T00:10:43.597Z,11.43
2022-11-12T00:13:10.211Z,12.55
2022-11-12T00:15:36.914Z,10.77
2022-11-12T00:18:03.933Z,11.70
2022-11-12T00:20:30.586Z,10.82
2022-11-12T00:22:57.211Z,10.40
2022-11-12T00:25:23.923Z,11.20
2022-11-12T00:27:50.544Z,11.57
2022-11-12T00:30:17.304Z,11.48
2022-11-12T00:32:43.964Z,10.80
2022-11-12T00:35:13.644Z,11.98
2022-11-12T00:37:40.956Z,11.60
2022-11-12T00:40:08.579Z,10.77
2022-11-12T00:42:35.226Z,10.98
2022-11-12T00:45:02.047Z,11.57
2022-11-12T00:47:28.679Z,11.63
2022-11-12T00:49:55.349Z,12.13
2022-11-12T00:52:22.072Z,11.02
2022-11-12T00:54:48.825Z,11.13
2022-11-12T00:57:15.449Z,10.73
2022-11-12T00:59:42.112Z,10.95
2022-11-12T01:02:08.748Z,12.23
2022-11-12T01:04:35.380Z,11.20
2022-11-12T01:07:02.087Z,11.40
2022-11-12T01:09:28.797Z,11.20
2022-11-12T01:11:55.480Z,11.38
2022-11-12T01:14:22.103Z,11.65
2022-11-12T01:16:48.832Z,12.73
2022-11-12T01:19:15.531Z,12.40
2022-11-12T01:21:44.203Z,11.65
2022-11-12T01:24:11.147Z,10.52
2022-11-12T01:26:38.656Z,13.13
2022-11-12T01:29:05.762Z,12.93
2022-11-12T01:31:34.921Z,12.00
2022-11-12T01:34:04.759Z,11.27
2022-11-12T01:36:37.747Z,11.52
2022-11-12T01:39:08.994Z,10.80
2022-11-12T01:41:38.083Z,10.73
2022-11-12T01:44:17.961Z,10.90
2022-11-12T01:46:56.912Z,12.18
2022-11-12T01:49:52.386Z,10.60
2022-11-12T01:52:42.959Z,11.05
2022-11-12T01:55:20.382Z,10.88
2022-11-12T01:57:56.774Z,10.70
2022-11-12T02:00:23.479Z,11.43
2022-11-12T02:02:54.531Z,11.35
2022-11-12T02:05:22.183Z,11.13
2022-11-12T02:07:49.406Z,12.85
2022-11-12T02:10:16.064Z,11.60
2022-11-12T02:13:01.955Z,11.65
2022-11-12T02:15:28.901Z,11.25
2022-11-12T02:17:55.612Z,11.82
2022-11-12T02:20:22.311Z,11.90
2022-11-12T02:22:48.933Z,12.30
2022-11-12T02:25:22.520Z,10.88
2022-11-12T02:27:51.871Z,10.30
2022-11-12T02:30:19.460Z,11.25
2022-11-12T02:32:46.074Z,10.20
2022-11-12T02:35:12.712Z,10.85
2022-11-12T02:37:39.401Z,10.20
2022-11-12T02:40:06.914Z,11.05
2022-11-12T02:42:33.531Z,10.38
2022-11-12T02:45:00.182Z,10.60
2022-11-12T02:47:26.867Z,11.77
2022-11-12T02:49:53.559Z,11.98
2022-11-12T02:52:20.204Z,12.68
2022-11-12T02:54:46.844Z,13.05
2022-11-12T02:57:13.477Z,13.38
2022-11-12T02:59:40.123Z,12.35
2022-11-12T03:02:06.733Z,13.40
2022-11-12T03:04:33.373Z,11.43
2022-11-12T03:07:00.021Z,11.40
2022-11-12T03:09:27.222Z,11.35
2022-11-12T03:11:54.008Z,12.93
2022-11-12T03:14:20.704Z,12.68
2022-11-12T03:16:47.355Z,11.15
2022-11-12T03:19:13.968Z,12.02
2022-11-12T03:21:40.579Z,11.30
2022-11-12T03:24:07.300Z,10.50
2022-11-12T03:26:35.975Z,10.93
2022-11-12T03:29:03.338Z,9.80
2022-11-12T03:31:30.076Z,10.00
2022-11-12T03:33:56.722Z,9.27
2022-11-12T03:36:23.416Z,9.57
2022-11-12T03:38:50.072Z,9.40
2022-11-12T03:41:16.707Z,10.02
2022-11-12T03:43:43.405Z,11.30
2022-11-12T03:46:10.020Z,10.30
2022-11-12T03:48:36.702Z,11.57
2022-11-12T03:51:03.351Z,10.82
2022-11-12T03:53:29.979Z,10.57
2022-11-12T03:55:56.659Z,10.98
2022-11-12T03:58:23.426Z,11.10
2022-11-12T04:00:50.190Z,9.95
2022-11-12T04:03:16.835Z,10.52
2022-11-12T04:06:03.751Z,9.68
2022-11-12T04:08:36.279Z,10.27
2022-11-12T04:11:08.963Z,9.93
2022-11-12T04:13:38.640Z,10.13
2022-11-12T04:16:32.875Z,11.05
2022-11-12T04:19:19.850Z,13.38
2022-11-12T04:21:51.364Z,10.82
2022-11-12T04:24:37.443Z,10.40
2022-11-12T04:27:04.419Z,12.23
2022-11-12T04:29:50.135Z,12.48
2022-11-12T04:32:16.792Z,10.10
2022-11-12T04:34:43.738Z,11.02
2022-11-12T04:37:10.430Z,10.73
2022-11-12T04:39:37.058Z,11.80
2022-11-12T04:42:22.299Z,10.73
2022-11-12T04:45:04.959Z,11.10
2022-11-12T04:47:33.321Z,11.18
2022-11-12T04:50:00.935Z,11.20
2022-11-12T04:52:29.095Z,11.00
2022-11-12T04:54:56.449Z,12.10
2022-11-12T04:57:23.234Z,10.50
2022-11-12T04:59:49.935Z,12.07
2022-11-12T05:02:17.751Z,12.45
2022-11-12T05:04:44.490Z,14.00
2022-11-12T05:07:11.385Z,12.07
2022-11-12T05:09:38.724Z,11.50
2022-11-12T05:12:05.658Z,12.13
2022-11-12T05:14:32.369Z,13.60
2022-11-12T05:16:59.068Z,13.45
2022-11-12T05:19:25.708Z,11.45
2022-11-12T05:22:17.387Z,14.18
2022-11-12T05:24:54.051Z,12.40
2022-11-12T05:27:21.399Z,14.88
2022-11-12T05:29:48.027Z,14.75
2022-11-12T05:32:15.864Z,17.27
2022-11-12T05:34:42.633Z,14.10
2022-11-12T05:37:10.399Z,13.88
2022-11-12T05:39:37.323Z,17.02
2022-11-12T05:42:13.521Z,15.55
2022-11-12T05:44:41.239Z,14.80
2022-11-12T05:47:07.938Z,12.68
2022-11-12T05:49:34.587Z,12.68
2022-11-12T05:52:01.285Z,13.75
2022-11-12T05:54:28.010Z,10.63
2022-11-12T05:56:54.680Z,11.02
2022-11-12T05:59:22.296Z,10.38
2022-11-12T06:01:48.939Z,10.07
2022-11-12T06:04:16.682Z,11.23
2022-11-12T06:06:44.000Z,9.50
2022-11-12T06:09:10.802Z,9.73
2022-11-12T06:11:37.786Z,10.30
2022-11-12T06:14:05.538Z,10.38
2022-11-12T06:16:32.563Z,11.02
2022-11-12T06:18:59.450Z,11.18
2022-11-12T06:21:27.962Z,10.18
2022-11-12T06:23:57.683Z,9.38
2022-11-12T06:26:26.188Z,9.60
2022-11-12T06:28:53.047Z,9.00
2022-11-12T06:31:20.342Z,14.02
2022-11-12T06:33:47.795Z,12.75
2022-11-12T06:36:16.068Z,10.45
2022-11-12T06:38:43.236Z,12.15
2022-11-12T06:41:11.782Z,10.65
2022-11-12T06:43:39.122Z,11.07
2022-11-12T06:46:09.179Z,9.88
2022-11-12T06:48:35.899Z,9.45
2022-11-12T06:51:07.671Z,9.23
2022-11-12T06:53:34.391Z,9.35
2022-11-12T06:56:05.784Z,9.02
2022-11-12T06:58:32.745Z,8.98
2022-11-12T07:01:11.742Z,9.23
2022-11-12T07:03:39.232Z,9.90
2022-11-12T07:06:08.370Z,9.02
2022-11-12T07:08:35.386Z,10.07
2022-11-12T07:11:02.172Z,9.35
2022-11-12T07:13:31.702Z,10.10
2022-11-12T07:16:00.122Z,11.32
2022-11-12T07:18:27.553Z,10.63
2022-11-12T07:21:03.076Z,18.02
2022-11-12T07:26:01.964Z,10.15
2022-11-12T07:28:29.344Z,11.32
2022-11-12T07:31:00.394Z,10.23
2022-11-12T07:33:27.767Z,11.40
2022-11-12T07:36:18.530Z,9.27
2022-11-12T07:38:45.890Z,8.65
2022-11-12T07:41:16.342Z,10.50
2022-11-12T07:43:45.967Z,9.52
2022-11-12T07:46:18.151Z,9.43
2022-11-12T07:48:46.227Z,12.25
2022-11-12T07:51:16.510Z,8.63
2022-11-12T07:53:44.060Z,8.32
2022-11-12T07:56:12.459Z,8.35
2022-11-12T07:58:39.266Z,9.40
2022-11-12T08:01:22.536Z,8.40
2022-11-12T08:03:49.178Z,8.18
2022-11-12T08:06:15.830Z,8.50
2022-11-12T08:08:42.456Z,7.47
2022-11-12T08:11:09.320Z,7.75
2022-11-12T08:13:35.975Z,7.95
2022-11-12T08:16:02.607Z,8.15
2022-11-12T08:18:30.074Z,8.70
2022-11-12T08:21:01.198Z,9.63
2022-11-12T08:23:28.571Z,8.75
2022-11-12T08:26:02.719Z,7.95
2022-11-12T08:28:30.418Z,8.32
2022-11-12T08:30:57.384Z,10.32
2022-11-12T08:33:24.216Z,7.93
2022-11-12T08:35:50.899Z,7.60
2022-11-12T08:38:17.998Z,8.65
2022-11-12T08:40:44.624Z,8.02
2022-11-12T08:43:11.579Z,7.85
2022-11-12T08:45:39.634Z,8.10
2022-11-12T08:48:09.275Z,8.60
2022-11-12T08:50:36.335Z,10.23
2022-11-12T08:53:05.613Z,8.35
2022-11-12T08:55:33.498Z,9.13
2022-11-12T08:58:02.338Z,8.30
2022-11-12T09:00:30.673Z,9.65
2022-11-12T09:03:00.384Z,8.30
2022-11-12T09:05:27.277Z,8.82
2022-11-12T09:07:58.335Z,9.80
2022-11-12T09:10:25.610Z,7.93
2022-11-12T09:12:52.839Z,8.27
2022-11-12T09:15:36.833Z,7.78
2022-11-12T09:18:06.191Z,8.10
2022-11-12T09:20:32.986Z,7.10
2022-11-12T09:23:04.642Z,6.72
2022-11-12T09:25:31.821Z,7.45
2022-11-12T09:27:58.496Z,7.43
2022-11-12T09:30:25.202Z,7.15
2022-11-12T09:32:58.069Z,9.77
2022-11-12T09:35:24.927Z,8.73
2022-11-12T09:37:51.570Z,6.82
2022-11-12T09:40:19.587Z,7.10
2022-11-12T09:42:53.457Z,7.50
2022-11-12T09:45:28.074Z,4.78
2022-11-12T09:47:58.151Z,4.80
2022-11-12T09:50:37.159Z,5.63
2022-11-12T09:53:33.192Z,4.68
2022-11-12T09:56:00.761Z,4.72
2022-11-12T09:58:27.943Z,6.47
2022-11-12T10:01:25.709Z,7.25
2022-11-12T10:04:14.107Z,10.57
2022-11-12T10:06:50.023Z,5.97
2022-11-12T10:09:20.290Z,6.78
2022-11-12T10:12:30.510Z,6.53
2022-11-12T10:15:23.037Z,7.50
2022-11-12T10:17:58.555Z,7.05
2022-11-12T10:20:27.982Z,6.30
2022-11-12T10:23:10.077Z,7.18
2022-11-12T10:25:37.725Z,8.05
2022-11-12T10:28:26.624Z,7.40
2022-11-12T10:31:00.999Z,6.57
2022-11-12T10:33:33.045Z,8.05
2022-11-12T10:36:17.688Z,8.85
2022-11-12T10:38:45.543Z,10.73
2022-11-12T10:41:41.503Z,7.65
2022-11-12T10:44:14.823Z,8.70
2022-11-12T10:46:41.495Z,7.35
2022-11-12T10:49:13.849Z,9.30
2022-11-12T10:51:40.791Z,9.60
2022-11-12T10:54:36.827Z,9.90
2022-11-12T10:57:23.510Z,8.95
2022-11-12T11:00:16.850Z,8.80
2022-11-12T11:02:51.804Z,7.85
2022-11-12T11:05:54.704Z,6.03
2022-11-12T11:08:50.889Z,6.85
2022-11-12T11:11:17.640Z,7.93
2022-11-12T11:13:45.951Z,6.65
2022-11-12T11:16:18.082Z,8.68
2022-11-12T11:18:54.653Z,8.05
2022-11-12T11:21:28.801Z,8.85
2022-11-12T11:23:58.091Z,8.15
2022-11-12T11:26:47.289Z,8.52
2022-11-12T11:29:34.848Z,12.90
2022-11-12T11:32:16.396Z,16.05
2022-11-12T11:35:21.304Z,20.17
2022-11-12T11:38:13.107Z,11.23
2022-11-12T11:40:59.663Z,10.77
2022-11-12T11:43:33.236Z,12.38
2022-11-12T11:46:10.491Z,9.98
2022-11-12T11:49:32.076Z,9.40
2022-11-12T11:52:20.236Z,11.32
2022-11-12T11:55:05.334Z,8.93
2022-11-12T11:58:10.880Z,12.05
2022-11-12T12:00:47.729Z,10.88
2022-11-12T12:03:20.776Z,8.65
2022-11-12T12:06:20.189Z,10.23
2022-11-12T12:09:24.439Z,10.77
2022-11-12T12:12:16.491Z,10.75
2022-11-12T12:15:03.582Z,10.50
2022-11-12T12:18:05.560Z,9.95
2022-11-12T12:20:47.941Z,11.07
2022-11-12T12:23:29.752Z,10.90
2022-11-12T12:26:00.405Z,10.32
2022-11-12T12:28:39.236Z,9.30
2022-11-12T12:31:11.010Z,10.27
2022-11-12T12:33:50.209Z,10.10
2022-11-12T12:36:37.229Z,9.93
2022-11-12T12:39:27.355Z,10.45
2022-11-12T12:41:58.672Z,10.15
2022-11-12T12:44:47.476Z,9.00
2022-11-12T12:47:14.885Z,10.23
2022-11-12T12:49:41.961Z,10.20
2022-11-12T12:52:12.859Z,9.60
2022-11-12T12:54:39.451Z,10.07
2022-11-12T12:57:25.947Z,9.65
2022-11-12T13:00:29.460Z,12.18
2022-11-12T13:02:56.266Z,13.30
2022-11-12T13:05:43.235Z,10.38
2022-11-12T13:08:13.149Z,10.52
2022-11-12T13:10:39.755Z,9.75
2022-11-12T13:13:18.520Z,10.48
2022-11-12T13:15:47.680Z,10.30
2022-11-12T13:18:39.629Z,10.63
2022-11-12T13:21:20.538Z,10.70
2022-11-12T13:24:07.632Z,10.90
2022-11-12T13:26:47.054Z,11.60
2022-11-12T13:29:23.460Z,13.40
2022-11-12T13:31:50.365Z,10.30
2022-11-12T13:34:22.420Z,11.02
2022-11-12T13:37:03.184Z,11.80
2022-11-12T13:39:32.947Z,11.30
2022-11-12T13:42:18.174Z,11.38
2022-11-12T13:44:45.152Z,10.82
2022-11-12T13:47:16.647Z,13.18
2022-11-12T13:49:44.414Z,10.93
2022-11-12T13:52:14.411Z,10.23
2022-11-12T13:54:41.366Z,10.43
2022-11-12T13:57:20.156Z,9.88
2022-11-12T13:59:47.192Z,11.07
2022-11-12T14:02:21.566Z,10.98
2022-11-12T14:04:48.399Z,9.38
2022-11-12T14:07:27.930Z,9.82
2022-11-12T14:10:12.083Z,10.48
2022-11-12T14:12:41.769Z,10.38
2022-11-12T14:15:42.048Z,12.68
2022-11-12T14:18:18.177Z,11.23
2022-11-12T14:20:44.908Z,10.48
2022-11-12T14:23:15.811Z,10.93
2022-11-12T14:25:52.652Z,11.25
2022-11-12T14:28:37.577Z,9.88
2022-11-12T14:31:04.959Z,10.20
2022-11-12T14:33:32.607Z,11.32
2022-11-12T14:36:19.100Z,10.93
2022-11-12T14:38:52.221Z,10.45
2022-11-12T14:41:23.407Z,11.02
2022-11-12T14:44:11.361Z,11.43
2022-11-12T14:46:48.383Z,12.68
2022-11-12T14:49:36.551Z,12.70
2022-11-12T14:52:29.642Z,12.35
2022-11-12T14:55:06.695Z,13.70
2022-11-12T14:57:33.564Z,12.27
2022-11-12T15:00:00.189Z,19.92
2022-11-12T15:02:47.337Z,12.75
2022-11-12T15:05:20.896Z,11.60
2022-11-12T15:08:03.790Z,11.10
2022-11-12T15:10:41.528Z,12.13
2022-11-12T15:13:09.660Z,11.63
2022-11-12T15:15:39.646Z,11.98
2022-11-12T15:18:08.120Z,12.25
2022-11-12T15:20:34.768Z,21.75
2022-11-12T15:23:01.786Z,14.95
2022-11-12T15:25:32.559Z,13.10
2022-11-12T15:28:21.547Z,14.38
2022-11-12T15:31:21.178Z,15.38
2022-11-12T15:33:47.850Z,17.50
2022-11-12T15:36:20.086Z,14.23
2022-11-12T15:38:54.637Z,12.85
2022-11-12T15:41:27.584Z,11.68
2022-11-12T15:43:54.299Z,12.05
2022-11-12T15:46:20.950Z,11.75
2022-11-12T15:48:52.851Z,11.93
2022-11-12T15:51:22.425Z,11.23
2022-11-12T15:53:49.114Z,12.85
2022-11-12T15:56:18.082Z,11.38
2022-11-12T15:58:45.150Z,13.93
2022-11-12T16:01:12.516Z,11.35
2022-11-12T16:03:39.272Z,14.57
2022-11-12T16:06:09.389Z,10.25
2022-11-12T16:08:36.286Z,11.52
2022-11-12T16:11:03.177Z,12.48
2022-11-12T16:13:33.348Z,14.82
2022-11-12T16:16:03.107Z,13.98
2022-11-12T16:18:29.745Z,12.35
2022-11-12T16:20:56.396Z,13.63
2022-11-12T16:23:23.046Z,13.32
2022-11-12T16:25:49.786Z,16.50
2022-11-12T16:28:17.992Z,14.88
2022-11-12T16:30:45.089Z,14.45
2022-11-12T16:33:12.850Z,12.98
2022-11-12T16:35:39.640Z,13.70
2022-11-12T16:38:14.178Z,12.95
2022-11-12T16:40:40.965Z,12.30
2022-11-12T16:43:07.627Z,12.23
2022-11-12T16:45:37.968Z,13.55
2022-11-12T16:48:20.192Z,11.52
2022-11-12T16:50:47.614Z,11.68
2022-11-12T16:53:14.579Z,13.13
2022-11-12T16:55:41.555Z,10.77
2022-11-12T16:58:13.327Z,10.95
2022-11-12T17:00:41.496Z,11.82
2022-11-12T17:03:12.166Z,11.10
2022-11-12T17:05:38.906Z,14.18
2022-11-12T17:08:05.679Z,12.18
2022-11-12T17:10:32.336Z,12.50
2022-11-12T17:12:59.101Z,12.88
2022-11-12T17:15:25.764Z,11.30
2022-11-12T17:17:55.651Z,13.68
2022-11-12T17:20:22.383Z,17.50
2022-11-12T17:22:49.011Z,13.60
2022-11-12T17:25:15.683Z,12.73
2022-11-12T17:27:42.308Z,10.35
2022-11-12T17:30:10.155Z,12.65
2022-11-12T17:32:36.783Z,10.98
2022-11-12T17:35:03.756Z,11.80
2022-11-12T17:37:30.404Z,11.85
2022-11-12T17:39:57.059Z,12.90
2022-11-12T17:42:23.760Z,13.90
2022-11-12T17:44:50.515Z,11.73
2022-11-12T17:47:17.158Z,11.57
2022-11-12T17:49:43.835Z,11.63
2022-11-12T17:52:10.545Z,10.52
2022-11-12T17:54:37.268Z,11.13
2022-11-12T17:57:04.364Z,14.73
2022-11-12T17:59:31.001Z,11.25
2022-11-12T18:01:57.702Z,10.68
2022-11-12T18:04:25.753Z,14.88
2022-11-12T18:06:54.599Z,11.57
2022-11-12T18:09:21.230Z,11.20
2022-11-12T18:11:50.216Z,12.65
2022-11-12T18:14:17.248Z,11.15
2022-11-12T18:16:44.151Z,13.25
2022-11-12T18:19:12.520Z,12.40
2022-11-12T18:21:40.311Z,11.77
2022-11-12T18:24:07.921Z,13.05
2022-11-12T18:26:34.615Z,13.07
2022-11-12T18:29:01.303Z,11.63
2022-11-12T18:31:28.373Z,12.88
2022-11-12T18:33:56.106Z,13.40
2022-11-12T18:36:25.147Z,14.13
2022-11-12T18:38:52.794Z,12.75
2022-11-12T18:41:25.627Z,13.95
2022-11-12T18:43:55.968Z,11.40
2022-11-12T18:46:23.217Z,10.70
2022-11-12T18:48:50.316Z,12.18
2022-11-12T18:51:18.639Z,10.75
2022-11-12T18:53:46.234Z,12.27
2022-11-12T18:56:18.027Z,12.60
2022-11-12T18:58:45.010Z,12.48
2022-11-12T19:01:15.958Z,12.60
2022-11-12T19:03:43.510Z,11.48
2022-11-12T19:06:12.398Z,12.13
2022-11-12T19:08:39.125Z,13.73
2022-11-12T19:11:08.194Z,13.90
2022-11-12T19:13:36.041Z,16.90
2022-11-12T19:16:11.901Z,13.57
2022-11-12T19:18:40.157Z,12.57
2022-11-12T19:21:24.488Z,13.02
2022-11-12T19:23:54.521Z,12.00
2022-11-12T19:26:22.211Z,12.63
2022-11-12T19:28:49.166Z,10.98
2022-11-12T19:31:20.686Z,10.55
2022-11-12T19:33:47.574Z,11.55
2022-11-12T19:36:16.618Z,10.55
2022-11-12T19:38:43.306Z,10.98
2022-11-12T19:41:17.744Z,10.23
2022-11-12T19:43:45.973Z,11.05
2022-11-12T19:46:12.679Z,10.75
2022-11-12T19:48:39.524Z,11.38
2022-11-12T19:51:08.006Z,14.27
2022-11-12T19:53:37.151Z,12.00
2022-11-12T19:58:34.505Z,10.68
2022-11-12T20:01:05.219Z,10.73
2022-11-12T20:03:32.115Z,10.77
2022-11-12T20:06:06.970Z,11.88
2022-11-12T20:08:33.830Z,10.73
2022-11-12T20:11:01.040Z,10.98
2022-11-12T20:13:27.879Z,10.30
2022-11-12T20:15:54.567Z,10.32
2022-11-12T20:18:21.251Z,11.57
2022-11-12T20:20:53.068Z,12.48
2022-11-12T20:23:19.780Z,12.07
2022-11-12T20:25:46.472Z,10.95
2022-11-12T20:28:13.240Z,10.68
2022-11-12T20:30:39.952Z,14.00
2022-11-12T20:33:06.670Z,11.55
2022-11-12T20:35:37.242Z,11.38
2022-11-12T20:38:04.487Z,12.35
2022-11-12T20:40:32.026Z,11.55
2022-11-12T20:42:58.799Z,14.63
2022-11-12T20:45:25.488Z,11.90
2022-11-12T20:47:52.136Z,11.48
2022-11-12T20:50:18.834Z,10.95
2022-11-12T20:52:45.483Z,10.38
2022-11-12T20:55:12.136Z,9.95
2022-11-12T20:57:38.837Z,10.45
2022-11-12T21:00:06.045Z,10.02
2022-11-12T21:02:32.659Z,10.18
2022-11-12T21:04:59.312Z,9.85
2022-11-12T21:07:25.963Z,9.70
2022-11-12T21:09:52.591Z,9.85
2022-11-12T21:12:19.196Z,11.18
2022-11-12T21:14:50.219Z,12.50
2022-11-12T21:17:17.358Z,15.80
2022-11-12T21:19:44.001Z,10.52
2022-11-12T21:22:10.658Z,11.35
2022-11-12T21:24:37.294Z,10.82
2022-11-12T21:27:03.938Z,11.48
2022-11-12T21:29:30.578Z,11.50
2022-11-12T21:31:57.186Z,10.73
2022-11-12T21:34:23.892Z,13.82
2022-11-12T21:36:50.555Z,16.58
2022-11-12T21:39:17.189Z,12.63
2022-11-12T21:41:43.835Z,12.65
2022-11-12T21:44:10.501Z,11.90
2022-11-12T21:46:37.654Z,12.73
2022-11-12T21:49:04.639Z,10.77
2022-11-12T21:51:32.961Z,11.10
2022-11-12T21:54:05.318Z,9.98
2022-11-12T21:56:34.057Z,10.30
2022-11-12T21:59:01.582Z,10.60
2022-11-12T22:01:30.032Z,11.07
2022-11-12T22:03:58.064Z,11.93
2022-11-12T22:06:29.398Z,11.02
2022-11-12T22:08:57.538Z,11.73
2022-11-12T22:11:25.344Z,10.93
2022-11-12T22:13:52.066Z,10.35
2022-11-12T22:16:21.084Z,11.45
2022-11-12T22:18:50.119Z,10.23
2022-11-12T22:21:19.373Z,9.45
2022-11-12T22:23:46.143Z,10.05
2022-11-12T22:26:21.971Z,10.80
2022-11-12T22:28:49.047Z,11.00
2022-11-12T22:31:21.270Z,12.40
2022-11-12T22:33:48.295Z,9.90
2022-11-12T22:36:17.051Z,11.02
2022-11-12T22:38:46.302Z,10.98
2022-11-12T22:43:47.927Z,11.43
2022-11-12T22:46:19.431Z,11.60
2022-11-12T22:48:46.249Z,13.30
2022-11-12T22:51:24.025Z,13.80
2022-11-12T22:54:01.463Z,14.00
2022-11-12T22:56:29.090Z,15.82
2022-11-12T22:58:56.535Z,15.68
2022-11-12T23:01:30.934Z,14.85
2022-11-12T23:03:59.407Z,17.38
2022-11-12T23:06:27.136Z,15.55
2022-11-12T23:08:54.685Z,16.27
2022-11-12T23:11:21.775Z,15.27
2022-11-12T23:13:49.054Z,15.57
2022-11-12T23:16:18.152Z,15.88
2022-11-12T23:18:45.233Z,15.90
2022-11-12T23:21:14.459Z,15.63
2022-11-12T23:26:23.126Z,13.85
2022-11-12T23:28:49.861Z,20.52
2022-11-12T23:31:21.699Z,24.02
2022-11-12T23:33:52.897Z,24.95
2022-11-12T23:36:20.391Z,26.50
2022-11-12T23:38:47.576Z,28.10
2022-11-12T23:41:17.122Z,29.15
2022-11-12T23:43:44.332Z,26.35
2022-11-12T23:46:11.684Z,26.92
2022-11-12T23:48:38.439Z,25.85
2022-11-12T23:51:10.715Z,26.92
2022-11-12T23:53:37.860Z,24.45
2022-11-12T23:56:05.947Z,24.50
2022-11-12T23:58:32.636Z,26.25
